Time;durP1;ratioP1;P1;durP2;ratioP2;P2;SDS_P1;SDS_P2;PMS_P1;PMS_P2;Temp;Humidity;BMP_temperature;BMP_pressure;BME280_temperature;BME280_humidity;BME280_pressure;Samples;Min_cycle;Max_cycle;Signal;HPM_P1;HPM_P2
2022/03/05 00:00:59;;;;;;;6.28;3.60;;;9.00;96.70;;;;;;4993586;28;20367;-87
2022/03/05 00:03:27;;;;;;;4.85;3.83;;;9.00;96.70;;;;;;5007444;28;20108;-88
2022/03/05 00:05:56;;;;;;;5.32;3.58;;;9.00;96.70;;;;;;4990435;28;20046;-88
2022/03/05 00:08:24;;;;;;;6.32;3.80;;;9.00;96.70;;;;;;4998044;28;20108;-87
2022/03/05 00:10:52;;;;;;;6.10;3.85;;;9.00;96.70;;;;;;4992342;28;20046;-88
2022/03/05 00:13:20;;;;;;;5.57;3.95;;;9.00;96.70;;;;;;4987271;28;20046;-87
2022/03/05 00:15:48;;;;;;;7.32;4.30;;;9.10;96.70;;;;;;5009229;28;20042;-87
2022/03/05 00:18:16;;;;;;;6.10;3.80;;;9.00;96.70;;;;;;4997613;28;20050;-87
2022/03/05 00:20:45;;;;;;;7.00;4.10;;;8.90;96.70;;;;;;5008353;28;20093;-88
2022/03/05 00:23:16;;;;;;;5.88;4.07;;;8.90;96.70;;;;;;4991717;28;20089;-87
2022/03/05 00:25:45;;;;;;;6.63;4.30;;;9.00;96.70;;;;;;4988938;28;20054;-87
2022/03/05 00:28:13;;;;;;;6.13;3.90;;;9.00;96.70;;;;;;4990551;28;20046;-87
2022/03/05 00:30:42;;;;;;;5.43;3.83;;;9.00;96.70;;;;;;5003001;28;20065;-87
2022/03/05 00:33:09;;;;;;;7.93;4.18;;;9.00;96.70;;;;;;4989310;28;20042;-88
2022/03/05 00:35:37;;;;;;;6.55;3.88;;;8.90;96.70;;;;;;5005948;28;20070;-88
2022/03/05 00:38:06;;;;;;;5.45;3.90;;;8.80;96.70;;;;;;5009166;28;20407;-88
2022/03/05 00:40:35;;;;;;;7.38;4.10;;;8.90;96.70;;;;;;4998423;28;20038;-88
2022/03/05 00:43:06;;;;;;;5.70;3.60;;;8.90;96.70;;;;;;4991535;28;20054;-89
2022/03/05 00:45:34;;;;;;;6.05;3.97;;;8.90;96.70;;;;;;4989974;28;20038;-87
2022/03/05 00:48:02;;;;;;;5.70;3.38;;;8.90;96.70;;;;;;5014808;28;20459;-88
2022/03/05 00:50:30;;;;;;;4.90;3.65;;;8.90;96.70;;;;;;5002106;28;20138;-88
2022/03/05 00:52:58;;;;;;;6.75;3.83;;;9.00;96.70;;;;;;5007041;28;20097;-88
2022/03/05 00:55:26;;;;;;;8.30;3.95;;;8.80;96.70;;;;;;4996507;28;20133;-88
2022/03/05 00:57:55;;;;;;;6.88;3.50;;;8.80;96.70;;;;;;4989635;28;20045;-87
2022/03/05 01:00:23;;;;;;;5.13;3.78;;;8.90;96.70;;;;;;5009282;28;20058;-88
2022/03/05 01:02:51;;;;;;;5.72;3.63;;;8.90;96.70;;;;;;4989203;28;20049;-87
2022/03/05 01:05:20;;;;;;;5.45;4.00;;;8.80;96.70;;;;;;4990659;28;20046;-87
2022/03/05 01:07:47;;;;;;;5.38;3.58;;;8.80;96.70;;;;;;4996584;28;20046;-87
2022/03/05 01:10:16;;;;;;;5.40;4.03;;;8.80;96.70;;;;;;5010368;28;21000;-86
2022/03/05 01:12:44;;;;;;;6.53;4.07;;;8.80;96.70;;;;;;5001308;28;20046;-87
2022/03/05 01:15:13;;;;;;;6.80;4.00;;;8.70;96.70;;;;;;4995784;28;20049;-85
2022/03/05 01:17:41;;;;;;;6.53;3.90;;;8.70;96.70;;;;;;5004046;28;20615;-85
2022/03/05 01:20:11;;;;;;;5.82;4.13;;;8.70;96.70;;;;;;5001859;28;20309;-84
2022/03/05 01:22:39;;;;;;;5.97;3.72;;;8.70;96.70;;;;;;5003534;28;20061;-85
2022/03/05 01:25:07;;;;;;;5.25;4.10;;;8.70;96.70;;;;;;5012402;28;20054;-85
2022/03/05 01:27:35;;;;;;;6.45;4.38;;;8.70;96.70;;;;;;4988639;28;20053;-85
2022/03/05 01:30:04;;;;;;;7.47;4.05;;;8.70;96.70;;;;;;4981350;28;20505;-85
2022/03/05 01:32:33;;;;;;;6.43;3.85;;;8.70;96.70;;;;;;4995936;28;20084;-85
2022/03/05 01:35:03;;;;;;;6.28;4.00;;;8.60;96.70;;;;;;5010858;28;20046;-85
2022/03/05 01:37:31;;;;;;;6.22;3.72;;;8.60;96.70;;;;;;4994827;28;20083;-84
2022/03/05 01:39:59;;;;;;;5.57;4.10;;;8.60;96.70;;;;;;4991341;28;20061;-84
2022/03/05 01:42:27;;;;;;;5.82;3.80;;;8.60;96.70;;;;;;4989720;28;20054;-85
2022/03/05 01:44:56;;;;;;;6.47;3.50;;;8.60;96.70;;;;;;4997791;28;20542;-85
2022/03/05 01:47:24;;;;;;;5.43;3.53;;;8.60;96.70;;;;;;5008234;28;20043;-85
2022/03/05 01:49:53;;;;;;;7.18;4.15;;;8.50;96.70;;;;;;4989844;28;20496;-86
2022/03/05 01:52:21;;;;;;;5.72;3.72;;;8.50;96.70;;;;;;4997215;28;20446;-86
2022/03/05 01:54:49;;;;;;;5.82;3.38;;;8.60;96.70;;;;;;4975230;28;20050;-85
2022/03/05 01:57:17;;;;;;;7.00;3.90;;;8.60;96.70;;;;;;4976886;28;20141;-85
2022/03/05 01:59:45;;;;;;;6.50;3.63;;;8.50;96.70;;;;;;5008588;28;20038;-86
2022/03/05 02:02:13;;;;;;;5.25;3.50;;;8.40;96.70;;;;;;4992330;28;20057;-86
2022/03/05 02:04:41;;;;;;;7.22;3.95;;;8.40;96.70;;;;;;4974498;28;20134;-85
2022/03/05 02:07:12;;;;;;;6.10;3.75;;;8.40;96.70;;;;;;4996406;28;20124;-86
2022/03/05 02:09:40;;;;;;;6.15;4.05;;;8.40;96.70;;;;;;4991362;28;20504;-84
2022/03/05 02:12:08;;;;;;;4.65;3.08;;;8.40;96.70;;;;;;4989331;28;20073;-85
2022/03/05 02:14:36;;;;;;;4.63;3.55;;;8.40;96.70;;;;;;4990440;28;20054;-86
2022/03/05 02:17:05;;;;;;;6.55;3.53;;;8.40;96.70;;;;;;4990270;28;20452;-85
2022/03/05 02:19:33;;;;;;;6.43;3.72;;;8.40;96.70;;;;;;4991922;28;20088;-85
2022/03/05 02:22:06;;;;;;;6.07;3.42;;;8.30;96.70;;;;;;4997387;28;20101;-85
2022/03/05 02:24:34;;;;;;;5.15;3.20;;;8.30;96.70;;;;;;4986407;28;20144;-85
2022/03/05 02:27:04;;;;;;;6.93;4.35;;;8.30;96.70;;;;;;4997979;28;20046;-85
2022/03/05 02:29:32;;;;;;;5.03;3.38;;;8.20;96.70;;;;;;5004183;28;20140;-85
2022/03/05 02:32:01;;;;;;;5.38;3.33;;;8.20;96.70;;;;;;4985820;28;20133;-85
2022/03/05 02:34:30;;;;;;;4.40;3.35;;;8.20;96.70;;;;;;4988555;28;20042;-86
2022/03/05 02:36:58;;;;;;;4.82;2.97;;;8.20;96.70;;;;;;4986968;28;20062;-85
2022/03/05 02:39:27;;;;;;;4.28;3.00;;;8.20;96.70;;;;;;4999527;28;20058;-85
2022/03/05 02:41:56;;;;;;;5.60;3.22;;;8.10;96.70;;;;;;5007096;28;20038;-85
2022/03/05 02:44:24;;;;;;;4.15;2.83;;;8.10;96.70;;;;;;4992883;28;20046;-85
2022/03/05 02:46:52;;;;;;;6.13;3.20;;;8.10;96.70;;;;;;4985543;28;20042;-84
2022/03/05 02:49:21;;;;;;;4.72;3.33;;;8.10;96.70;;;;;;4989664;28;20065;-85
2022/03/05 02:51:49;;;;;;;6.53;3.33;;;8.10;96.70;;;;;;5010688;28;20037;-85
2022/03/05 02:54:18;;;;;;;5.75;3.40;;;8.20;96.70;;;;;;4988251;28;20050;-85
2022/03/05 02:56:47;;;;;;;5.10;3.13;;;8.20;96.70;;;;;;4984540;28;20037;-85
2022/03/05 02:59:15;;;;;;;4.82;3.20;;;8.10;96.70;;;;;;5005327;28;20137;-86
2022/03/05 03:01:45;;;;;;;5.30;2.92;;;8.20;96.70;;;;;;4992257;28;20076;-86
2022/03/05 03:04:13;;;;;;;7.13;3.42;;;8.20;96.70;;;;;;4994552;28;20105;-85
2022/03/05 03:06:42;;;;;;;5.45;3.13;;;8.20;96.70;;;;;;4995696;28;20038;-85
2022/03/05 03:09:10;;;;;;;4.90;3.25;;;8.10;96.70;;;;;;4990195;23;20101;-87
2022/03/05 03:11:39;;;;;;;5.97;3.83;;;8.10;96.70;;;;;;4994642;28;20100;-85
2022/03/05 03:14:09;;;;;;;6.10;3.20;;;8.10;96.70;;;;;;5002893;28;20046;-85
2022/03/05 03:16:37;;;;;;;5.60;3.42;;;8.10;96.70;;;;;;5003286;28;20080;-85
2022/03/05 03:19:05;;;;;;;6.47;3.28;;;8.10;96.70;;;;;;5004383;28;20057;-85
2022/03/05 03:21:33;;;;;;;6.65;3.78;;;8.10;96.70;;;;;;4977390;28;20038;-85
2022/03/05 03:24:03;;;;;;;6.57;3.78;;;8.10;96.70;;;;;;4992639;28;20046;-85
2022/03/05 03:26:31;;;;;;;6.57;3.97;;;8.10;96.70;;;;;;5007436;28;20745;-85
2022/03/05 03:28:59;;;;;;;7.32;3.90;;;8.00;96.70;;;;;;4986481;28;20046;-85
2022/03/05 03:31:28;;;;;;;6.40;4.07;;;8.00;96.70;;;;;;4989549;28;20518;-85
2022/03/05 03:33:57;;;;;;;6.78;3.90;;;7.90;96.70;;;;;;4989391;28;20045;-85
2022/03/05 03:36:25;;;;;;;5.68;3.80;;;7.90;96.70;;;;;;4997434;28;20760;-85
2022/03/05 03:38:53;;;;;;;11.05;4.63;;;7.90;96.70;;;;;;5004185;28;20805;-85
2022/03/05 03:41:21;;;;;;;7.75;4.32;;;7.90;96.70;;;;;;4993917;28;20053;-85
2022/03/05 03:43:49;;;;;;;6.28;3.85;;;7.90;96.70;;;;;;4997367;28;20120;-85
2022/03/05 03:46:17;;;;;;;6.95;4.03;;;7.90;96.70;;;;;;4989578;28;20046;-85
2022/03/05 03:48:47;;;;;;;5.45;3.78;;;7.90;96.70;;;;;;4988670;28;20046;-85
2022/03/05 03:51:15;;;;;;;9.82;4.57;;;7.80;96.70;;;;;;4995857;28;20046;-86
2022/03/05 03:53:43;;;;;;;8.38;4.25;;;7.90;96.70;;;;;;4989132;28;20169;-85
2022/03/05 03:56:12;;;;;;;7.68;4.03;;;7.80;96.70;;;;;;5000961;28;20058;-85
2022/03/05 03:58:42;;;;;;;7.68;4.47;;;7.80;96.70;;;;;;5003880;28;20061;-85
2022/03/05 04:01:10;;;;;;;7.80;4.30;;;7.80;96.70;;;;;;5008178;28;20497;-84
2022/03/05 04:03:39;;;;;;;6.20;3.90;;;7.80;96.70;;;;;;4996393;28;20062;-84
2022/03/05 04:06:08;;;;;;;7.18;4.28;;;7.80;96.70;;;;;;5011308;28;20046;-85
2022/03/05 04:08:42;;;;;;;9.35;4.43;;;7.70;96.70;;;;;;4989204;28;20161;-85
2022/03/05 04:11:11;;;;;;;7.97;4.30;;;7.70;96.70;;;;;;4998005;28;20053;-85
2022/03/05 04:13:40;;;;;;;8.88;4.63;;;7.70;96.70;;;;;;4992824;28;20464;-85
2022/03/05 04:16:08;;;;;;;7.90;4.40;;;7.70;96.70;;;;;;5012272;28;20578;-85
2022/03/05 04:18:37;;;;;;;9.20;4.65;;;7.70;96.70;;;;;;4978418;28;20089;-85
2022/03/05 04:21:07;;;;;;;9.35;4.47;;;7.60;96.70;;;;;;4992988;28;20070;-85
2022/03/05 04:23:37;;;;;;;8.23;4.55;;;7.60;96.70;;;;;;5006657;28;20077;-86
2022/03/05 04:26:05;;;;;;;7.50;4.50;;;7.60;96.70;;;;;;5014870;28;20070;-84
2022/03/05 04:28:34;;;;;;;7.22;4.22;;;7.60;96.70;;;;;;5003859;28;20081;-85
2022/03/05 04:31:02;;;;;;;9.35;4.53;;;7.50;96.70;;;;;;5010210;28;20053;-85
2022/03/05 04:33:30;;;;;;;7.93;4.70;;;7.50;96.70;;;;;;5007214;28;20038;-85
2022/03/05 04:35:58;;;;;;;7.97;4.13;;;7.50;96.70;;;;;;5014803;28;20046;-85
2022/03/05 04:38:26;;;;;;;8.75;5.00;;;7.50;96.70;;;;;;5016775;28;20042;-85
2022/03/05 04:40:56;;;;;;;8.80;4.90;;;7.50;96.70;;;;;;4988378;28;20129;-85
2022/03/05 04:43:24;;;;;;;9.35;4.72;;;7.50;96.70;;;;;;4995178;28;20038;-85
2022/03/05 04:45:53;;;;;;;7.90;4.85;;;7.50;96.70;;;;;;4991607;28;20038;-85
2022/03/05 04:48:22;;;;;;;9.48;5.68;;;7.50;96.70;;;;;;4994059;28;20574;-85
2022/03/05 04:50:50;;;;;;;8.52;4.63;;;7.50;96.70;;;;;;4991410;28;20050;-86
2022/03/05 04:53:20;;;;;;;9.80;4.93;;;7.50;96.70;;;;;;5003937;28;20062;-85
2022/03/05 04:55:49;;;;;;;9.40;5.43;;;7.50;96.70;;;;;;4989660;28;20057;-84
2022/03/05 04:58:19;;;;;;;8.65;5.10;;;7.50;96.70;;;;;;4990819;28;20093;-85
2022/03/05 05:00:47;;;;;;;8.60;5.60;;;7.50;96.70;;;;;;4992659;28;20229;-84
2022/03/05 05:03:15;;;;;;;11.45;5.65;;;7.60;96.70;;;;;;4992949;28;20149;-84
2022/03/05 05:05:44;;;;;;;10.48;5.80;;;7.50;96.70;;;;;;4995149;28;20176;-84
2022/03/05 05:08:13;;;;;;;10.85;6.20;;;7.60;96.70;;;;;;5013640;28;20514;-85
2022/03/05 05:10:41;;;;;;;10.90;6.03;;;7.50;96.70;;;;;;4991979;28;20325;-84
2022/03/05 05:13:15;;;;;;;12.20;6.32;;;7.50;96.70;;;;;;4992408;28;20566;-85
2022/03/05 05:15:47;;;;;;;10.32;5.90;;;7.60;96.70;;;;;;4990266;28;20515;-85
2022/03/05 05:18:16;;;;;;;10.85;6.60;;;7.60;96.70;;;;;;5005273;28;20073;-85
2022/03/05 05:20:44;;;;;;;11.65;6.18;;;7.50;96.70;;;;;;4974021;28;20049;-85
2022/03/05 05:23:12;;;;;;;10.65;6.40;;;7.50;96.70;;;;;;5007211;28;20046;-85
2022/03/05 05:25:40;;;;;;;11.77;6.40;;;7.50;96.70;;;;;;4991558;28;20042;-85
2022/03/05 05:28:09;;;;;;;10.10;6.80;;;7.50;96.70;;;;;;4993665;28;20133;-85
2022/03/05 05:30:37;;;;;;;14.35;6.70;;;7.40;96.70;;;;;;4998485;28;20062;-85
2022/03/05 05:33:07;;;;;;;11.38;7.00;;;7.50;96.70;;;;;;5001789;28;20051;-83
2022/03/05 05:35:35;;;;;;;10.85;6.60;;;7.40;96.70;;;;;;4989976;28;20588;-85
2022/03/05 05:38:03;;;;;;;11.90;6.15;;;7.40;96.70;;;;;;5010632;28;20081;-85
2022/03/05 05:40:32;;;;;;;11.27;6.38;;;7.40;96.70;;;;;;4991479;28;20488;-84
2022/03/05 05:43:00;;;;;;;12.05;7.20;;;7.30;96.70;;;;;;4990372;28;21102;-85
2022/03/05 05:45:30;;;;;;;12.20;6.32;;;7.30;96.70;;;;;;4994332;28;20073;-84
2022/03/05 05:47:59;;;;;;;11.68;6.45;;;7.30;96.70;;;;;;5006987;28;20042;-85
2022/03/05 05:50:29;;;;;;;13.52;7.03;;;7.40;96.70;;;;;;5006143;28;20067;-85
2022/03/05 05:52:57;;;;;;;14.13;7.65;;;7.40;96.70;;;;;;5011074;28;20092;-85
2022/03/05 05:55:26;;;;;;;13.60;7.30;;;7.30;96.70;;;;;;4974084;28;20138;-86
2022/03/05 05:57:55;;;;;;;10.48;6.30;;;7.40;96.70;;;;;;4995465;28;20042;-85
2022/03/05 06:00:23;;;;;;;11.70;7.03;;;7.40;96.70;;;;;;4995998;28;20401;-85
2022/03/05 06:02:51;;;;;;;13.88;6.90;;;7.30;96.70;;;;;;5011318;28;20052;-84
2022/03/05 06:05:19;;;;;;;13.07;6.88;;;7.40;96.70;;;;;;4987265;28;20508;-85
2022/03/05 06:07:49;;;;;;;10.35;6.80;;;7.40;96.70;;;;;;4991649;28;20049;-85
2022/03/05 06:10:17;;;;;;;11.75;6.75;;;7.40;96.70;;;;;;5006465;28;20077;-85
2022/03/05 06:12:45;;;;;;;12.32;7.05;;;7.40;96.70;;;;;;5011811;28;20042;-85
2022/03/05 06:15:13;;;;;;;14.30;7.35;;;7.50;96.70;;;;;;4994824;28;20065;-85
2022/03/05 06:17:42;;;;;;;11.73;7.85;;;7.40;96.70;;;;;;4990233;28;20046;-85
2022/03/05 06:20:11;;;;;;;13.85;7.50;;;7.50;96.70;;;;;;4992321;28;20044;-85
2022/03/05 06:22:41;;;;;;;12.80;7.45;;;7.50;96.70;;;;;;4982156;28;20170;-86
2022/03/05 06:25:11;;;;;;;11.15;7.15;;;7.40;96.70;;;;;;4996791;28;20038;-85
2022/03/05 06:27:40;;;;;;;15.80;7.63;;;7.40;96.70;;;;;;5006652;28;20113;-86
2022/03/05 06:30:10;;;;;;;11.63;7.30;;;7.50;96.70;;;;;;4999761;28;20070;-86
2022/03/05 06:32:38;;;;;;;13.13;8.15;;;7.40;96.70;;;;;;4987632;28;20069;-86
2022/03/05 06:35:07;;;;;;;13.27;8.07;;;7.50;96.70;;;;;;4997403;28;20057;-85
2022/03/05 06:37:35;;;;;;;13.48;7.57;;;7.50;96.70;;;;;;5005441;28;20386;-86
2022/03/05 06:40:06;;;;;;;12.77;8.20;;;7.60;96.70;;;;;;4992442;28;20042;-85
2022/03/05 06:42:36;;;;;;;12.25;7.93;;;7.60;96.70;;;;;;5005588;28;20046;-85
2022/03/05 06:45:05;;;;;;;13.38;7.90;;;7.60;96.70;;;;;;4991675;28;20039;-85
2022/03/05 06:47:33;;;;;;;13.10;7.95;;;7.60;96.70;;;;;;5008536;28;20676;-86
2022/03/05 06:50:08;;;;;;;12.25;8.35;;;7.70;96.70;;;;;;4997013;28;20061;-86
2022/03/05 06:52:37;;;;;;;13.52;7.60;;;7.80;96.70;;;;;;4987373;28;20129;-85
2022/03/05 06:55:06;;;;;;;14.63;8.52;;;7.80;96.70;;;;;;4988168;28;20670;-84
2022/03/05 06:57:38;;;;;;;12.93;7.30;;;7.80;96.70;;;;;;4994271;28;20421;-86
2022/03/05 07:00:08;;;;;;;11.93;7.65;;;7.80;96.70;;;;;;5012554;28;20054;-86
2022/03/05 07:02:36;;;;;;;14.95;8.50;;;7.80;96.70;;;;;;5013082;28;20056;-86
2022/03/05 07:05:05;;;;;;;11.50;7.20;;;7.80;96.70;;;;;;4994853;28;20545;-84
2022/03/05 07:07:33;;;;;;;12.20;7.72;;;7.80;96.70;;;;;;5010883;28;20042;-81
2022/03/05 07:10:03;;;;;;;12.07;7.35;;;7.90;96.70;;;;;;4994758;28;20062;-82
2022/03/05 07:12:31;;;;;;;11.70;7.60;;;7.90;96.70;;;;;;4991937;28;20124;-83
2022/03/05 07:15:07;;;;;;;12.20;7.55;;;7.90;96.70;;;;;;4986690;28;20396;-82
2022/03/05 07:17:35;;;;;;;13.35;8.05;;;8.00;96.70;;;;;;5001497;28;20886;-81
2022/03/05 07:20:05;;;;;;;13.05;7.68;;;8.10;96.70;;;;;;5003791;28;20129;-79
2022/03/05 07:22:33;;;;;;;12.30;7.32;;;8.10;96.70;;;;;;4988818;28;20058;-87
2022/03/05 07:25:01;;;;;;;13.85;8.48;;;8.10;96.70;;;;;;5002587;28;20070;-85
2022/03/05 07:27:30;;;;;;;13.38;8.00;;;8.20;96.70;;;;;;4990876;28;20496;-85
2022/03/05 07:29:58;;;;;;;14.57;8.18;;;8.20;96.70;;;;;;4976907;28;20492;-84
2022/03/05 07:32:28;;;;;;;14.52;8.35;;;8.20;96.70;;;;;;5011228;28;20105;-86
2022/03/05 07:34:56;;;;;;;13.38;8.55;;;8.30;96.70;;;;;;4972737;28;20069;-86
2022/03/05 07:37:24;;;;;;;14.18;8.73;;;8.30;96.70;;;;;;5017961;28;20081;-86
2022/03/05 07:39:52;;;;;;;15.60;8.70;;;8.40;96.70;;;;;;4986394;28;20039;-86
2022/03/05 07:42:21;;;;;;;13.13;7.70;;;8.40;96.70;;;;;;5011348;28;20054;-86
2022/03/05 07:44:49;;;;;;;12.30;7.75;;;8.40;96.70;;;;;;4992223;28;20043;-86
2022/03/05 07:47:17;;;;;;;12.63;7.60;;;8.40;96.70;;;;;;5012439;28;20042;-84
2022/03/05 07:49:47;;;;;;;13.40;7.93;;;8.50;96.70;;;;;;4993373;28;20046;-84
2022/03/05 07:52:15;;;;;;;12.75;7.63;;;8.50;96.70;;;;;;4995435;28;20046;-91
2022/03/05 07:54:43;;;;;;;11.40;7.65;;;8.50;96.70;;;;;;5011361;28;20376;-91
2022/03/05 07:57:11;;;;;;;14.73;8.25;;;8.60;96.70;;;;;;5008450;28;20125;-91
2022/03/05 07:59:39;;;;;;;13.60;7.70;;;8.60;96.70;;;;;;5004608;28;20551;-91
2022/03/05 08:02:10;;;;;;;10.60;7.03;;;8.70;96.70;;;;;;4991171;28;20043;-84
2022/03/05 08:04:38;;;;;;;11.45;7.55;;;8.70;96.70;;;;;;5014054;28;20050;-91
2022/03/05 08:07:28;;;;;;;12.43;7.80;;;8.70;96.70;;;;;;4998826;28;20049;-89
2022/03/05 08:09:56;;;;;;;14.70;8.10;;;8.70;96.70;;;;;;4983366;28;20532;-90
2022/03/05 08:12:24;;;;;;;12.70;7.55;;;8.70;96.30;;;;;;5001252;28;20621;-91
2022/03/05 08:14:52;;;;;;;14.13;7.53;;;8.80;96.30;;;;;;5000757;28;20117;-89
2022/03/05 08:17:23;;;;;;;11.55;7.90;;;8.80;96.50;;;;;;4994950;28;20401;-90
2022/03/05 08:19:51;;;;;;;12.05;7.65;;;8.80;96.60;;;;;;5003757;28;20038;-92
2022/03/05 08:22:22;;;;;;;11.57;7.78;;;8.90;96.30;;;;;;4998097;28;20073;-92
2022/03/05 08:24:52;;;;;;;11.73;8.05;;;8.90;96.50;;;;;;4995468;28;20118;-93
2022/03/05 08:27:20;;;;;;;13.88;8.18;;;9.00;96.50;;;;;;4995023;28;20042;-88
2022/03/05 08:29:49;;;;;;;11.30;7.40;;;9.00;96.10;;;;;;5008269;28;20057;-88
2022/03/05 08:32:17;;;;;;;10.73;7.05;;;9.10;96.40;;;;;;4992803;28;20042;-89
2022/03/05 08:34:45;;;;;;;12.25;8.07;;;9.10;95.50;;;;;;5006621;28;20046;-88
2022/03/05 08:37:19;;;;;;;11.95;7.07;;;9.10;95.50;;;;;;4990389;28;20062;-85
2022/03/05 08:39:49;;;;;;;12.18;7.95;;;9.10;95.50;;;;;;4992324;28;20038;-84
2022/03/05 08:42:20;;;;;;;13.32;7.40;;;9.10;95.70;;;;;;4998861;28;20656;-86
2022/03/05 08:44:48;;;;;;;12.05;7.93;;;9.20;95.60;;;;;;5007048;28;20050;-85
2022/03/05 08:47:17;;;;;;;10.70;7.38;;;9.30;95.40;;;;;;4987257;28;20062;-85
2022/03/05 09:09:51;;;;;;;11.95;7.60;;;9.60;94.40;;;;;;4984271;28;20396;-80
2022/03/05 09:12:20;;;;;;;12.55;7.55;;;9.80;93.50;;;;;;4981244;28;20039;-85
2022/03/05 09:37:41;;;;;;;11.50;7.75;;;10.10;93.30;;;;;;5047823;28;20425;-89
2022/03/05 09:40:12;;;;;;;10.80;7.65;;;10.20;92.00;;;;;;5023393;28;20046;-91
2022/03/05 09:42:42;;;;;;;12.25;7.63;;;10.20;92.40;;;;;;5037940;28;20910;-86
2022/03/05 09:45:12;;;;;;;10.43;7.53;;;10.30;92.00;;;;;;5009864;28;20049;-87
2022/03/05 09:47:42;;;;;;;11.38;6.93;;;10.40;92.30;;;;;;5037594;28;20263;-87
2022/03/05 09:50:11;;;;;;;10.30;6.70;;;10.40;91.30;;;;;;5025643;28;20057;-90
2022/03/05 09:52:41;;;;;;;9.85;7.13;;;10.40;91.20;;;;;;5028541;28;20119;-91
2022/03/05 09:55:10;;;;;;;13.18;7.90;;;10.50;91.30;;;;;;5017675;28;20125;-92
2022/03/05 09:57:38;;;;;;;9.30;6.38;;;10.50;91.10;;;;;;5030055;28;20041;-91
2022/03/05 10:00:07;;;;;;;11.20;7.15;;;10.60;91.80;;;;;;5036744;28;20042;-89
2022/03/05 10:02:37;;;;;;;12.68;7.38;;;10.70;91.00;;;;;;5024467;28;20061;-89
2022/03/05 10:05:13;;;;;;;10.90;7.13;;;10.70;91.00;;;;;;5012431;28;20192;-91
2022/03/05 10:08:00;;;;;;;10.13;6.93;;;10.60;90.90;;;;;;5025032;28;20072;-88
2022/03/05 10:10:29;;;;;;;12.57;6.85;;;10.70;91.20;;;;;;5039683;28;20045;-92
2022/03/05 10:13:05;;;;;;;10.15;7.00;;;10.90;90.90;;;;;;5026614;28;20503;-87
2022/03/05 10:15:36;;;;;;;10.98;7.38;;;10.90;90.30;;;;;;5031682;28;20049;-89
2022/03/05 10:18:05;;;;;;;12.00;7.38;;;10.90;90.40;;;;;;5035820;28;20057;-85
2022/03/05 10:20:42;;;;;;;9.10;7.32;;;10.90;90.40;;;;;;5040713;28;20041;-87
2022/03/05 10:23:13;;;;;;;10.63;7.15;;;11.10;90.60;;;;;;5042854;28;20675;-86
2022/03/05 10:25:44;;;;;;;11.52;7.03;;;11.20;89.80;;;;;;5024913;28;20080;-86
2022/03/05 10:28:15;;;;;;;10.35;7.15;;;11.30;89.60;;;;;;5025810;28;20507;-91
2022/03/05 10:30:47;;;;;;;10.40;7.03;;;11.20;89.40;;;;;;5025130;28;20050;-89
2022/03/05 10:33:28;;;;;;;11.75;7.03;;;11.30;89.60;;;;;;5024531;28;20049;-84
2022/03/05 10:35:58;;;;;;;10.88;7.20;;;11.40;89.90;;;;;;5001670;28;20076;-84
2022/03/05 10:38:47;;;;;;;11.30;8.45;;;11.40;89.40;;;;;;4994572;28;20049;-84
2022/03/05 10:41:17;;;;;;;12.52;7.97;;;11.40;89.10;;;;;;5023268;28;20080;-84
2022/03/05 10:44:05;;;;;;;10.80;7.75;;;11.40;89.50;;;;;;5001273;28;20096;-83
2022/03/05 10:46:40;;;;;;;10.10;6.95;;;11.50;88.70;;;;;;5003937;28;20051;-83
2022/03/05 10:49:14;;;;;;;9.73;6.88;;;11.50;88.90;;;;;;5005416;28;20046;-84
2022/03/05 10:51:46;;;;;;;10.65;7.93;;;11.60;88.70;;;;;;5003742;28;20510;-84
2022/03/05 10:54:28;;;;;;;10.80;7.30;;;11.70;88.40;;;;;;5004412;28;20042;-83
2022/03/05 10:57:05;;;;;;;9.20;6.65;;;11.60;88.00;;;;;;5020877;28;20144;-85
2022/03/05 10:59:35;;;;;;;9.45;7.25;;;11.60;87.50;;;;;;5007550;28;20176;-84
2022/03/05 11:02:04;;;;;;;9.63;7.00;;;11.60;87.80;;;;;;5009166;28;20057;-84
2022/03/05 11:04:35;;;;;;;13.43;8.50;;;11.70;87.80;;;;;;4999887;28;20076;-85
2022/03/05 11:07:04;;;;;;;10.20;7.55;;;11.70;87.50;;;;;;5018398;28;20050;-84
2022/03/05 11:09:36;;;;;;;8.80;7.28;;;11.50;87.40;;;;;;5013745;28;20100;-84
2022/03/05 11:12:09;;;;;;;10.30;7.22;;;11.50;87.40;;;;;;4993320;28;20181;-83
2022/03/05 11:14:41;;;;;;;11.07;7.07;;;11.70;87.90;;;;;;4998070;28;20545;-82
2022/03/05 11:17:10;;;;;;;13.63;7.85;;;11.70;87.30;;;;;;5010904;28;20545;-84
2022/03/05 11:19:39;;;;;;;8.35;6.82;;;11.40;86.80;;;;;;4993720;28;20502;-83
2022/03/05 11:22:08;;;;;;;12.40;7.65;;;11.50;86.90;;;;;;5006420;28;20400;-83
2022/03/05 11:24:40;;;;;;;10.35;7.03;;;11.30;86.60;;;;;;4986491;28;20526;-84
2022/03/05 11:27:13;;;;;;;9.95;7.03;;;11.40;86.80;;;;;;5015107;28;20060;-86
2022/03/05 11:29:54;;;;;;;8.80;6.97;;;11.50;87.00;;;;;;5015442;28;20404;-87
2022/03/05 11:32:27;;;;;;;11.90;7.93;;;11.80;87.20;;;;;;4995493;28;20046;-84
2022/03/05 11:34:56;;;;;;;10.07;7.00;;;11.80;87.30;;;;;;5013296;28;20042;-84
2022/03/05 11:37:32;;;;;;;9.43;6.50;;;11.80;87.10;;;;;;5008282;28;20140;-83
2022/03/05 11:40:05;;;;;;;12.30;7.40;;;11.80;86.00;;;;;;5000521;28;20042;-86
2022/03/05 11:42:36;;;;;;;9.55;6.68;;;12.00;85.90;;;;;;5013566;28;20073;-85
2022/03/05 11:45:26;;;;;;;10.00;7.35;;;12.10;86.20;;;;;;4987178;28;20056;-85
2022/03/05 11:48:24;;;;;;;9.75;6.75;;;12.20;86.50;;;;;;4998495;28;20072;-85
2022/03/05 11:50:54;;;;;;;9.65;7.43;;;12.30;85.20;;;;;;5006339;28;20053;-85
2022/03/05 11:53:23;;;;;;;9.73;6.55;;;12.10;84.10;;;;;;5012617;28;20068;-84
2022/03/05 11:55:53;;;;;;;13.73;8.45;;;11.70;83.80;;;;;;5012701;28;20081;-85
2022/03/05 11:58:39;;;;;;;10.10;7.38;;;11.50;84.30;;;;;;4996853;28;20111;-85
2022/03/05 12:01:36;;;;;;;16.65;8.38;;;11.50;85.00;;;;;;5007614;28;20065;-84
2022/03/05 12:04:25;;;;;;;12.50;8.07;;;11.40;84.40;;;;;;4991435;28;20046;-84
2022/03/05 12:06:58;;;;;;;9.80;6.88;;;11.50;83.80;;;;;;4991591;28;20061;-83
2022/03/05 12:09:43;;;;;;;9.15;6.60;;;11.80;84.80;;;;;;4993974;28;20049;-85
2022/03/05 12:12:16;;;;;;;9.55;6.65;;;12.20;84.40;;;;;;4988864;28;20228;-84
2022/03/05 12:15:13;;;;;;;9.05;6.55;;;12.30;84.00;;;;;;5003125;28;20045;-84
2022/03/05 12:17:50;;;;;;;9.18;6.22;;;12.20;82.60;;;;;;5020706;28;20049;-84
2022/03/05 12:20:23;;;;;;;8.57;6.20;;;12.30;83.70;;;;;;5020023;28;20041;-84
2022/03/05 12:22:57;;;;;;;7.85;5.75;;;12.50;83.00;;;;;;5005895;28;20046;-85
2022/03/05 12:25:28;;;;;;;10.15;7.25;;;12.50;82.20;;;;;;5007827;28;20054;-84
2022/03/05 12:27:58;;;;;;;8.40;6.45;;;12.60;82.00;;;;;;4998206;28;20108;-85
2022/03/05 12:30:32;;;;;;;9.15;6.35;;;12.50;81.70;;;;;;5009861;28;20056;-87
2022/03/05 12:33:01;;;;;;;9.38;6.45;;;12.70;82.30;;;;;;5009030;28;20054;-86
2022/03/05 12:35:32;;;;;;;9.80;6.35;;;12.80;82.40;;;;;;4999844;28;20085;-84
2022/03/05 12:38:00;;;;;;;9.82;7.00;;;12.70;80.80;;;;;;5006658;28;20037;-85
2022/03/05 12:40:33;;;;;;;9.43;6.63;;;12.80;81.10;;;;;;5015475;28;20607;-85
2022/03/05 12:43:07;;;;;;;8.63;6.38;;;13.00;81.30;;;;;;5007740;28;20045;-85
2022/03/05 12:45:37;;;;;;;8.77;6.18;;;13.20;81.70;;;;;;4990886;28;20068;-84
2022/03/05 12:48:09;;;;;;;8.82;6.03;;;13.10;81.60;;;;;;5013240;28;20050;-83
2022/03/05 12:50:39;;;;;;;9.30;6.05;;;12.80;80.70;;;;;;5015024;28;20050;-85
2022/03/05 12:53:09;;;;;;;9.13;6.28;;;12.70;81.20;;;;;;5025752;28;20045;-85
2022/03/05 12:55:39;;;;;;;7.25;5.88;;;12.70;81.10;;;;;;5009430;28;20149;-86
2022/03/05 12:58:13;;;;;;;7.15;6.20;;;12.90;81.00;;;;;;5009173;28;20038;-85
2022/03/05 13:00:44;;;;;;;7.97;5.85;;;13.00;81.00;;;;;;5011763;28;20117;-85
2022/03/05 13:03:14;;;;;;;10.30;6.55;;;13.10;81.20;;;;;;5002217;28;20050;-85
2022/03/05 13:05:45;;;;;;;7.70;5.72;;;13.20;81.40;;;;;;4990724;28;20515;-86
2022/03/05 13:08:18;;;;;;;7.97;5.75;;;13.30;81.30;;;;;;4998804;28;20103;-86
2022/03/05 13:10:48;;;;;;;7.70;6.18;;;13.40;80.80;;;;;;4997844;28;20129;-87
2022/03/05 13:13:27;;;;;;;8.60;6.07;;;13.50;80.80;;;;;;5008860;28;20037;-86
2022/03/05 13:15:57;;;;;;;8.68;5.65;;;13.60;80.70;;;;;;5015778;28;20045;-87
2022/03/05 13:18:26;;;;;;;7.65;6.30;;;13.70;80.40;;;;;;4997555;28;20827;-86
2022/03/05 13:21:00;;;;;;;8.30;5.82;;;13.80;80.30;;;;;;4994020;28;20072;-84
2022/03/05 13:23:30;;;;;;;7.57;5.60;;;13.50;80.80;;;;;;5005226;28;20049;-86
2022/03/05 13:25:59;;;;;;;7.23;5.73;;;13.20;80.90;;;;;;5004403;28;20092;-86
2022/03/05 13:28:44;;;;;;;8.27;5.95;;;13.20;81.20;;;;;;4996563;28;20049;-84
2022/03/05 13:31:12;;;;;;;10.98;6.10;;;13.10;80.20;;;;;;5005768;28;20733;-85
2022/03/05 13:33:49;;;;;;;7.72;6.15;;;13.10;80.30;;;;;;4991846;28;20069;-84
2022/03/05 13:36:23;;;;;;;7.45;5.18;;;13.20;80.70;;;;;;5011614;28;20093;-89
2022/03/05 13:38:52;;;;;;;6.95;5.35;;;13.20;80.40;;;;;;4989250;28;20050;-89
2022/03/05 13:41:25;;;;;;;5.97;5.03;;;13.30;80.90;;;;;;5013555;28;20498;-82
2022/03/05 13:43:56;;;;;;;7.40;4.85;;;13.40;80.50;;;;;;5004545;28;20056;-86
2022/03/05 13:46:26;;;;;;;7.93;5.07;;;13.30;80.60;;;;;;5005745;28;20096;-88
2022/03/05 13:48:56;;;;;;;8.70;5.13;;;13.30;80.60;;;;;;5010640;28;20100;-85